Skip Navigation Links
NOAA logo - Click to go to the NOAA homepage
NOAA's National Weather Service
Alaska Aviation Weather Unit
  NWS logo - Click to go to the NWS homepage
Left Navbar Graphic     01 AKDT = 09 GMT

   
NOAA is celebrating 200 years of science, service, and stewardship. Visit the NOAA 200th celebration Web site to learn more.
USA.gov is the U.S. Government's official Web portal to all Federal, state and local government Web resources and services.
Facebook
NWS on Facebook

Important Change Regarding the AAWU Web Presence

 

Over the last several months, the AAWU has been working to navigate its webpages to a nationally supported server. Security, as well as other needs, have necessitated the change.  We have been given an extension for the site changeover while we diligently work at addressing feedback received. As of July 14, 2017, aawu.arh.noaa.gov will be discontinued. The new AAWU web address is weather.gov/aawu. It is now live and will run in-parallel with the old site until it is discontinued on July 14, 2017. Please continue to send any feedback or questions regarding the new webpages to nws.ar.aawu.webauthors@noaa.gov.  Thank you for your patience during this time of transition.
AAWU Home :: Display TAF Add Bookmark
SPECI PAIW 190332Z AUTO 31015KT 10SM SCT019 BKN030 OVC047 05/02 A2976
     RMK AO2 RAE11 P0000=

SPECI PAIW 190340Z AUTO 31014KT 7SM -RA FEW019 BKN025 OVC047 04/02
 A2976 RMK AO2 RAE11B37 P0000=

METAR PAIW 190356Z AUTO 31014KT 10SM -RA BKN022 OVC028 05/02 A2976
 RMK AO2 RAE11B37 SLP079 P0000 T00500017=

METAR PAIW 190456Z AUTO 31013KT 10SM SCT020 BKN028 OVC060 05/01 A2976
     RMK AO2 RAE00 SLP079 P0000 T00500011=

METAR PAIW 190556Z AUTO 33013KT 10SM SCT022 BKN028 OVC055 05/01
 A2976 RMK AO2 RAB10E49 SLP081 P0000 60002 T00500011 10061 20039
 53003=

PAIW 190651Z AUTO 33014G18KT 10SM FEW018 BKN038 OVC049 05/02 A2977
     RMK AO2 RAB14E51 P0001=

METAR PAIW 190656Z AUTO 32014KT 10SM SCT021 BKN040 OVC080 05/01
 A2977 RMK AO2 RAB14E51 SLP083 P0001 T00500011=

SPECI PAIW 190718Z AUTO 32017G23KT 10SM -RA BKN023 BKN028 OVC080 04/02
     A2977 RMK AO2 RAB18 P0000=

SPECI PAIW 190744Z AUTO 32013KT 10SM FEW021 BKN055 OVC080 05/02 A2977
     RMK AO2 RAB18E35 P0000=

METAR PAIW 190756Z AUTO 32015KT 10SM SCT021 SCT055 OVC085 05/02 A2977
     RMK AO2 RAB18E35 SLP083 P0000 T00500017=

SPECI PAIW 190840Z AUTO 30015KT 10SM SCT019 BKN027 OVC085 05/02 A2978
     RMK AO2 RAB22E33 P0000=

METAR PAIW 190856Z AUTO 33015KT 10SM BKN022 OVC032 05/02 A2978 RMK AO2
     RAB22E55 SLP086 P0000 60001 T00500017 400670039 53004=


NOAA's National Weather Service
Alaska Aviation Weather Unit
6930 Sand Lake Road
Anchorage, AK 99502-1845
Disclaimer
Credits
Glossary
Privacy Policy
About Us
Career Opportunities
Contact AAWU Internet Services Site last modified: April, 17th 2012